Kennebec, South Dakota
Current Conditions -  °F | °C
As of 5:15 PM on Wednesday 26 Nov 2014 (Local Time) from K9V9 Reporting Station
Overcast Overcast  
Wind Chill: 10°   Ceiling: 3700
Heat Index: 19°   Visibility: 10mi
Dew Point:   Wind: 7mph
Humidity: 64%   Direction: 30°NNE
Pressure: 30.39"   Gusts: NA
Location:  43.9°N, 99.86°W
Report Text: K9V9 262315Z AUTO 03006KT 10SM OVC037 M07/M13 A3039 RMK AO2 T10721130
Loading
Personal Weather Stations






























Interactive Weather Map New forecast layout! Learn more

10-Day Weather Forecast

Advertisements
Track Severe Weather on mobile